createdAt,value
2019-05-15T00:01:19.074Z,103054.77
2019-05-15T00:03:51.531Z,103054.77
2019-05-15T00:06:24.607Z,103053.12
2019-05-15T00:08:58.909Z,103053.59
2019-05-15T00:11:32.127Z,103051.44
2019-05-15T00:14:05.247Z,103052.24
2019-05-15T00:16:38.794Z,103045.26
2019-05-15T00:19:11.888Z,103046.81
2019-05-15T00:21:44.864Z,103047.16
2019-05-15T00:24:17.942Z,103047.16
2019-05-15T00:26:50.941Z,103046.92
2019-05-15T00:29:23.891Z,103041.75
2019-05-15T00:31:58.951Z,103036.58
2019-05-15T00:34:31.717Z,103037.63
2019-05-15T00:37:04.648Z,103035.21
2019-05-15T00:39:39.040Z,103032.69
2019-05-15T00:42:12.382Z,103030.27
2019-05-15T00:44:45.426Z,103029.67
2019-05-15T00:47:18.337Z,103031.89
2019-05-15T00:49:51.209Z,103021.34
2019-05-15T00:52:24.242Z,103020.46
2019-05-15T00:54:58.997Z,103021.91
2019-05-15T00:57:31.947Z,103019.55
2019-05-15T01:00:05.490Z,103010.48
2019-05-15T01:02:38.979Z,103016.19
2019-05-15T01:05:12.144Z,103016.19
2019-05-15T01:07:45.102Z,103013.09
2019-05-15T01:10:19.407Z,103012.02
2019-05-15T01:12:52.401Z,103004.17
2019-05-15T01:15:25.453Z,103005.05
2019-05-15T01:17:58.712Z,103006.39
2019-05-15T01:20:31.633Z,102987.20
2019-05-15T01:23:04.951Z,102987.20
2019-05-15T01:25:39.051Z,102992.91
2019-05-15T01:28:12.102Z,102982.49
2019-05-15T01:30:45.036Z,102993.55
2019-05-15T01:33:19.009Z,102987.95
2019-05-15T01:35:52.003Z,102987.95
2019-05-15T01:38:24.893Z,102989.79
2019-05-15T01:40:59.180Z,102993.76
2019-05-15T01:43:32.157Z,102994.34
2019-05-15T01:46:05.109Z,102985.95
2019-05-15T01:48:38.973Z,102985.95
2019-05-15T01:51:12.113Z,102983.48
2019-05-15T01:53:45.014Z,102997.31
2019-05-15T01:56:18.892Z,102997.31
2019-05-15T01:58:51.954Z,102988.11
2019-05-15T02:01:24.949Z,102996.51
2019-05-15T02:03:59.041Z,102990.45
2019-05-15T02:06:31.939Z,102990.45
2019-05-15T02:09:08.334Z,102996.97
2019-05-15T02:11:41.334Z,102994.47
2019-05-15T02:14:14.311Z,102999.31
2019-05-15T02:16:48.352Z,102987.66
2019-05-15T02:19:21.759Z,102987.66
2019-05-15T02:21:54.710Z,102991.32
2019-05-15T02:24:28.379Z,102994.59
2019-05-15T02:27:01.739Z,102985.52
2019-05-15T02:29:34.645Z,102994.38
2019-05-15T02:32:10.145Z,102994.38
2019-05-15T02:34:42.768Z,102993.16
2019-05-15T02:37:15.641Z,102993.16
2019-05-15T02:39:49.605Z,102999.61
2019-05-15T02:42:22.765Z,102993.63
2019-05-15T02:44:58.496Z,102989.23
2019-05-15T02:47:30.348Z,102990.57
2019-05-15T02:50:03.655Z,102973.96
2019-05-15T02:52:39.628Z,102986.33
2019-05-15T02:55:11.396Z,102986.33
2019-05-15T02:57:44.320Z,102985.05
2019-05-15T03:00:36.610Z,102983.44
2019-05-15T03:02:52.730Z,102983.44
2019-05-15T03:05:29.282Z,102981.75
2019-05-15T03:08:00.736Z,102980.94
2019-05-15T03:10:34.027Z,102987.58
2019-05-15T03:13:09.760Z,102987.11
2019-05-15T03:15:42.096Z,102984.90
2019-05-15T03:18:15.489Z,102984.90
2019-05-15T03:20:50.174Z,102990.61
2019-05-15T03:23:23.466Z,102980.61
2019-05-15T03:25:59.561Z,102980.61
2019-05-15T03:28:31.174Z,102985.85
2019-05-15T03:31:25.940Z,102974.48
2019-05-15T03:33:45.842Z,102974.48
2019-05-15T03:36:14.317Z,102974.33
2019-05-15T03:38:49.930Z,102972.99
2019-05-15T03:41:22.172Z,102967.62
2019-05-15T03:43:55.167Z,102972.52
2019-05-15T03:46:29.335Z,102969.49
2019-05-15T03:49:02.627Z,102969.49
2019-05-15T03:51:39.916Z,102967.22
2019-05-15T03:54:10.782Z,102964.70
2019-05-15T03:56:44.147Z,102963.37
2019-05-15T03:59:19.310Z,102963.37
2019-05-15T04:01:52.110Z,102964.59
2019-05-15T04:04:25.149Z,102962.80
2019-05-15T04:06:59.614Z,102962.80
2019-05-15T04:09:32.861Z,102970.98
2019-05-15T04:12:09.181Z,102967.26
2019-05-15T04:14:40.596Z,102967.26
2019-05-15T04:17:13.678Z,102977.34
2019-05-15T04:19:49.502Z,102969.74
2019-05-15T04:22:21.433Z,102969.74
2019-05-15T04:24:54.990Z,102974.47
2019-05-15T04:27:29.346Z,102974.47
2019-05-15T04:30:02.358Z,102976.04
2019-05-15T04:32:35.323Z,102971.90
2019-05-15T04:35:10.141Z,102977.09
2019-05-15T04:37:43.355Z,102974.66
2019-05-15T04:40:19.178Z,102979.38
2019-05-15T04:42:51.433Z,102975.06
2019-05-15T04:45:24.313Z,102975.06
2019-05-15T04:47:58.761Z,102974.01
2019-05-15T04:50:32.206Z,102971.56
2019-05-15T04:53:05.304Z,102971.56
2019-05-15T04:55:40.297Z,102974.41
2019-05-15T04:58:13.287Z,102974.41
2019-05-15T05:00:51.137Z,102980.45
2019-05-15T05:03:24.234Z,102980.45
2019-05-15T05:05:59.085Z,102983.36
2019-05-15T05:08:31.964Z,102989.59
2019-05-15T05:11:05.039Z,102986.78
2019-05-15T05:13:39.281Z,102986.78
2019-05-15T05:16:12.613Z,102986.52
2019-05-15T05:18:48.593Z,102978.80
2019-05-15T05:21:20.560Z,102992.61
2019-05-15T05:23:53.535Z,102992.98
2019-05-15T05:26:29.165Z,102985.77
2019-05-15T05:29:01.678Z,102994.59
2019-05-15T05:31:34.665Z,102999.33
2019-05-15T05:34:08.278Z,102997.57
2019-05-15T05:36:41.407Z,102997.57
2019-05-15T05:39:17.683Z,102990.79
2019-05-15T05:41:49.341Z,102999.53
2019-05-15T05:44:22.790Z,103003.87
2019-05-15T05:46:58.112Z,103003.87
2019-05-15T05:49:30.377Z,103000.81
2019-05-15T05:52:03.383Z,103009.31
2019-05-15T05:54:38.272Z,103009.31
2019-05-15T05:57:11.438Z,103002.98
2019-05-15T05:59:44.409Z,103004.03
2019-05-15T06:02:18.583Z,103005.14
2019-05-15T06:04:51.637Z,103014.66
2019-05-15T06:07:24.647Z,103012.69
2019-05-15T06:09:58.105Z,103017.75
2019-05-15T06:12:31.366Z,103011.73
2019-05-15T06:15:04.892Z,103021.53
2019-05-15T06:17:39.274Z,103024.31
2019-05-15T06:20:12.705Z,103026.91
2019-05-15T06:22:47.777Z,103031.62
2019-05-15T06:25:20.545Z,103032.73
2019-05-15T06:27:53.469Z,103032.73
2019-05-15T06:30:30.735Z,103035.37
2019-05-15T06:33:09.387Z,103034.40
2019-05-15T06:35:39.425Z,103031.39
2019-05-15T06:38:12.789Z,103031.39
2019-05-15T06:40:48.476Z,103031.42
2019-05-15T06:43:20.773Z,103030.44
2019-05-15T06:45:53.677Z,103031.12
2019-05-15T06:48:28.711Z,103034.79
2019-05-15T06:51:01.328Z,103030.47
2019-05-15T06:53:34.423Z,103028.20
2019-05-15T06:56:07.970Z,103028.20
2019-05-15T06:58:41.731Z,103022.37
2019-05-15T07:01:15.050Z,103031.51
2019-05-15T07:03:48.536Z,103024.53
2019-05-15T07:06:21.632Z,103024.40
2019-05-15T07:08:54.816Z,103024.40
2019-05-15T07:11:28.179Z,103023.75
2019-05-15T07:14:01.311Z,103022.87
2019-05-15T07:16:34.536Z,103019.66
2019-05-15T07:19:08.296Z,103019.66
2019-05-15T07:21:41.385Z,103019.80
2019-05-15T07:24:14.460Z,103019.45
2019-05-15T07:26:48.363Z,103020.84
2019-05-15T07:29:21.573Z,103014.93
2019-05-15T07:31:54.556Z,103014.93
2019-05-15T07:34:28.309Z,103009.26
2019-05-15T07:37:01.530Z,103011.80
2019-05-15T07:39:34.528Z,103016.41
2019-05-15T07:42:08.577Z,103016.41
2019-05-15T07:44:41.743Z,103018.62
2019-05-15T07:47:14.685Z,103018.11
2019-05-15T07:49:49.220Z,103017.78
2019-05-15T07:52:22.265Z,103019.43
2019-05-15T07:54:55.442Z,103019.43
2019-05-15T07:57:29.867Z,103022.52
2019-05-15T08:00:04.293Z,103022.44
2019-05-15T08:02:38.182Z,103020.09
2019-05-15T08:05:11.870Z,103026.41
2019-05-15T08:07:44.923Z,103025.06
2019-05-15T08:10:18.542Z,103025.06
2019-05-15T08:12:51.519Z,103031.34
2019-05-15T08:15:25.010Z,103035.25
2019-05-15T08:18:08.187Z,103038.58
2019-05-15T08:20:32.669Z,103043.24
2019-05-15T08:23:05.651Z,103044.58
2019-05-15T08:25:39.015Z,103044.22
2019-05-15T08:28:12.083Z,103044.22
2019-05-15T08:30:45.142Z,103041.55
2019-05-15T08:33:18.394Z,103034.72
2019-05-15T08:35:52.170Z,103031.48
2019-05-15T08:38:25.171Z,103023.84
2019-05-15T08:40:59.211Z,103023.84
2019-05-15T08:43:32.339Z,103024.26
2019-05-15T08:46:08.001Z,103025.66
2019-05-15T08:48:40.443Z,103021.14
2019-05-15T08:51:13.411Z,103012.17
2019-05-15T08:53:48.635Z,103012.17
2019-05-15T08:56:20.941Z,103010.13
2019-05-15T08:58:53.832Z,103001.84
2019-05-15T09:01:28.764Z,103005.36
2019-05-15T09:04:01.388Z,103005.36
2019-05-15T09:06:34.277Z,103004.19
2019-05-15T09:09:09.609Z,102990.13
2019-05-15T09:11:41.981Z,102990.13
2019-05-15T09:14:14.854Z,102987.20
2019-05-15T09:16:48.985Z,103000.66
2019-05-15T09:19:22.099Z,102989.20
2019-05-15T09:21:55.588Z,102989.20
2019-05-15T09:24:28.749Z,102995.66
2019-05-15T09:27:01.724Z,102969.19
2019-05-15T09:29:34.672Z,102972.97
2019-05-15T09:32:08.292Z,102972.97
2019-05-15T09:34:50.654Z,102974.44
2019-05-15T09:37:18.019Z,102966.02
2019-05-15T09:39:51.051Z,102960.95
2019-05-15T09:42:24.025Z,102960.95
2019-05-15T09:44:58.232Z,102960.02
2019-05-15T09:47:31.375Z,102962.31
2019-05-15T09:50:04.745Z,102963.10
2019-05-15T09:52:39.067Z,102961.52
2019-05-15T09:55:12.775Z,102958.87
2019-05-15T09:57:45.622Z,102952.97
2019-05-15T10:00:20.357Z,102939.80
2019-05-15T10:02:53.448Z,102942.16
2019-05-15T10:05:28.097Z,102940.91
2019-05-15T10:08:01.313Z,102944.21
2019-05-15T10:10:34.281Z,102941.52
2019-05-15T10:13:09.031Z,102934.99
2019-05-15T10:15:41.914Z,102924.28
2019-05-15T10:18:14.943Z,102915.00
2019-05-15T10:20:48.718Z,102915.00
2019-05-15T10:23:21.605Z,102917.17
2019-05-15T10:25:54.658Z,102917.17
2019-05-15T10:28:29.271Z,102915.91
2019-05-15T10:31:02.294Z,102912.19
2019-05-15T10:33:35.209Z,102914.70
2019-05-15T10:36:08.636Z,102909.73
2019-05-15T10:38:41.695Z,102909.73
2019-05-15T10:41:15.290Z,102897.69
2019-05-15T10:43:55.994Z,102897.39
2019-05-15T10:46:23.032Z,102892.80
2019-05-15T10:48:58.430Z,102898.74
2019-05-15T10:51:30.923Z,102886.12
2019-05-15T10:54:03.964Z,102882.39
2019-05-15T10:56:38.601Z,102878.41
2019-05-15T10:59:11.846Z,102878.41
2019-05-15T11:01:44.764Z,102884.82
2019-05-15T11:04:18.129Z,102874.95
2019-05-15T11:06:51.124Z,102878.52
2019-05-15T11:09:23.952Z,102878.52
2019-05-15T11:11:58.334Z,102885.20
2019-05-15T11:14:31.323Z,102887.20
2019-05-15T11:17:04.166Z,102881.41
2019-05-15T11:19:40.431Z,102868.81
2019-05-15T11:22:11.583Z,102859.81
2019-05-15T11:24:44.699Z,102857.50
2019-05-15T11:27:19.111Z,102866.61
2019-05-15T11:29:51.964Z,102859.87
2019-05-15T11:32:24.835Z,102869.30
2019-05-15T11:34:58.283Z,102852.61
2019-05-15T11:37:31.194Z,102854.03
2019-05-15T11:40:05.299Z,102847.73
2019-05-15T11:42:39.453Z,102843.88
2019-05-15T11:45:13.347Z,102836.55
2019-05-15T11:47:48.292Z,102849.98
2019-05-15T11:50:21.918Z,102832.08
2019-05-15T11:52:54.743Z,102832.08
2019-05-15T11:55:29.188Z,102826.18
2019-05-15T11:58:02.090Z,102819.89
2019-05-15T12:00:35.111Z,102812.34
2019-05-15T12:03:08.943Z,102808.34
2019-05-15T12:05:42.033Z,102816.63
2019-05-15T12:08:14.855Z,102816.63
2019-05-15T12:10:47.814Z,102815.03
2019-05-15T12:13:20.634Z,102813.05
2019-05-15T12:15:53.482Z,102800.63
2019-05-15T12:18:28.545Z,102807.72
2019-05-15T12:21:01.229Z,102801.28
2019-05-15T12:23:34.277Z,102801.28
2019-05-15T12:26:08.990Z,102801.30
2019-05-15T12:28:42.107Z,102795.21
2019-05-15T12:31:14.970Z,102792.43
2019-05-15T12:33:48.959Z,102787.27
2019-05-15T12:36:45.347Z,102780.77
2019-05-15T12:38:56.439Z,102778.53
2019-05-15T13:02:08.241Z,102741.08
2019-05-15T13:04:41.237Z,102742.11
2019-05-15T13:07:16.841Z,102738.95
2019-05-15T13:09:49.225Z,102734.67
2019-05-15T13:12:22.345Z,102733.80
2019-05-15T13:14:55.263Z,102736.44
2019-05-15T13:17:29.091Z,102727.52
2019-05-15T13:20:02.986Z,102722.14
2019-05-15T13:22:36.559Z,102730.23
2019-05-15T13:25:11.532Z,102728.70
2019-05-15T13:27:44.431Z,102725.24
2019-05-15T13:30:18.318Z,102726.56
2019-05-15T13:32:51.350Z,102715.48
2019-05-15T13:35:24.196Z,102712.64
2019-05-15T13:37:58.654Z,102709.64
2019-05-15T13:40:37.595Z,102709.64
2019-05-15T13:43:08.351Z,102710.23
2019-05-15T13:45:40.906Z,102709.89
2019-05-15T13:48:16.413Z,102703.61
2019-05-15T13:50:48.416Z,102703.31
2019-05-15T13:53:21.312Z,102691.22
2019-05-15T13:55:54.228Z,102684.11
2019-05-15T13:58:28.246Z,102679.78
2019-05-15T14:01:01.533Z,102679.78
2019-05-15T14:03:34.352Z,102669.10
2019-05-15T14:06:09.423Z,102667.07
2019-05-15T14:08:41.737Z,102660.16
2019-05-15T14:11:14.580Z,102654.04
2019-05-15T14:13:48.610Z,102655.98
2019-05-15T14:16:21.782Z,102653.05
2019-05-15T14:18:54.613Z,102653.05
2019-05-15T14:21:28.611Z,102639.68
2019-05-15T14:24:01.846Z,102639.68
2019-05-15T14:26:35.133Z,102637.30
2019-05-15T14:29:09.003Z,102634.38
2019-05-15T14:31:42.131Z,102629.55
2019-05-15T14:34:15.265Z,102627.17
2019-05-15T14:36:48.460Z,102625.00
2019-05-15T14:39:22.306Z,102622.08
2019-05-15T14:41:55.238Z,102613.46
2019-05-15T14:44:28.212Z,102610.64
2019-05-15T14:47:01.122Z,102610.64
2019-05-15T14:49:35.795Z,102603.66
2019-05-15T14:52:09.535Z,102596.44
2019-05-15T14:54:42.783Z,102596.44
2019-05-15T14:57:18.189Z,102586.80
2019-05-15T14:59:50.502Z,102586.80
2019-05-15T15:02:23.456Z,102583.71
2019-05-15T15:04:59.228Z,102580.48
2019-05-15T15:07:31.365Z,102574.59
2019-05-15T15:10:05.049Z,102574.59
2019-05-15T15:12:39.681Z,102565.19
2019-05-15T15:15:12.970Z,102563.64
2019-05-15T15:17:45.817Z,102563.64
2019-05-15T15:20:18.828Z,102558.49
2019-05-15T15:22:51.741Z,102562.13
2019-05-15T15:25:25.147Z,102562.13
2019-05-15T15:27:58.780Z,102559.16
2019-05-15T15:30:31.710Z,102559.16
2019-05-15T15:33:04.861Z,102550.17
2019-05-15T15:35:38.283Z,102547.59
2019-05-15T15:38:13.494Z,102551.71
2019-05-15T15:40:48.157Z,102541.39
2019-05-15T15:43:20.873Z,102545.02
2019-05-15T15:45:53.761Z,102546.98
2019-05-15T15:48:28.540Z,102543.14
2019-05-15T15:51:01.709Z,102544.74
2019-05-15T15:53:34.730Z,102538.80
2019-05-15T15:56:10.679Z,102538.80
2019-05-15T15:58:42.888Z,102539.50
2019-05-15T16:01:18.368Z,102539.50
2019-05-15T16:03:50.729Z,102530.31
2019-05-15T16:06:23.935Z,102530.31
2019-05-15T16:08:59.403Z,102528.20
2019-05-15T16:11:31.791Z,102526.56
2019-05-15T16:14:04.880Z,102528.91
2019-05-15T16:16:38.185Z,102520.18
2019-05-15T16:19:11.579Z,102520.27
2019-05-15T16:21:44.560Z,102520.27
2019-05-15T16:24:20.802Z,102524.28
2019-05-15T16:26:52.131Z,102524.28
2019-05-15T16:29:25.193Z,102525.77
2019-05-15T16:31:58.262Z,102521.73
2019-05-15T16:34:31.181Z,102519.25
2019-05-15T16:37:04.132Z,102519.25
2019-05-15T16:39:38.199Z,102515.75
2019-05-15T16:42:11.316Z,102511.45
2019-05-15T16:44:44.327Z,102513.67
2019-05-15T16:47:18.609Z,102513.27
2019-05-15T16:49:51.737Z,102513.27
2019-05-15T16:52:24.584Z,102510.37
2019-05-15T16:54:58.224Z,102510.22
2019-05-15T16:57:31.174Z,102513.45
2019-05-15T17:00:04.582Z,102513.45
2019-05-15T17:02:39.284Z,102520.58
2019-05-15T17:05:13.813Z,102520.58
2019-05-15T17:07:48.862Z,102512.81
2019-05-15T17:10:21.434Z,102507.06
2019-05-15T17:12:54.397Z,102505.71
2019-05-15T17:15:28.044Z,102503.47
2019-05-15T17:18:01.131Z,102503.47
2019-05-15T17:20:34.010Z,102501.71
2019-05-15T17:23:08.680Z,102501.71
2019-05-15T17:25:41.798Z,102505.63
2019-05-15T17:28:15.021Z,102504.34
2019-05-15T17:30:49.002Z,102503.14
2019-05-15T17:33:21.933Z,102499.42
2019-05-15T17:35:54.872Z,102499.42
2019-05-15T17:38:28.656Z,102500.25
2019-05-15T17:41:03.060Z,102500.25
2019-05-15T17:43:37.943Z,102504.27
2019-05-15T17:46:10.827Z,102501.11
2019-05-15T17:48:43.883Z,102506.56
2019-05-15T17:51:17.740Z,102507.47
2019-05-15T17:53:50.976Z,102507.47
2019-05-15T17:56:23.916Z,102510.31
2019-05-15T17:58:58.200Z,102510.31
2019-05-15T18:01:31.131Z,102520.59
2019-05-15T18:04:04.365Z,102517.83
2019-05-15T18:06:39.763Z,102521.41
2019-05-15T18:09:11.952Z,102513.88
2019-05-15T18:11:45.080Z,102518.34
2019-05-15T18:14:18.127Z,102518.34
2019-05-15T18:16:51.127Z,102519.67
2019-05-15T18:19:24.364Z,102516.13
2019-05-15T18:21:59.244Z,102519.01
2019-05-15T18:24:32.325Z,102525.44
2019-05-15T18:27:05.272Z,102525.44
2019-05-15T18:29:38.731Z,102526.68
2019-05-15T18:32:12.184Z,102522.41
2019-05-15T18:34:45.231Z,102518.58
2019-05-15T18:37:19.161Z,102518.58
2019-05-15T18:40:02.451Z,102526.38
2019-05-15T18:42:30.529Z,102520.60
2019-05-15T18:45:03.951Z,102522.58
2019-05-15T18:47:38.963Z,102531.35
2019-05-15T18:50:13.581Z,102531.35
2019-05-15T18:52:48.835Z,102530.15
2019-05-15T18:55:21.947Z,102532.48
2019-05-15T18:57:54.851Z,102543.34
2019-05-15T19:00:29.538Z,102535.46
2019-05-15T19:03:15.134Z,102532.13
2019-05-15T19:05:38.697Z,102529.65
2019-05-15T19:08:11.704Z,102529.65
2019-05-15T19:10:44.644Z,102534.36
2019-05-15T19:13:17.576Z,102532.27
2019-05-15T19:15:50.538Z,102532.27
2019-05-15T19:18:23.673Z,102540.27
2019-05-15T19:20:58.661Z,102532.59
2019-05-15T19:23:32.092Z,102532.59
2019-05-15T19:26:05.007Z,102538.77
2019-05-15T19:28:39.121Z,102540.25
2019-05-15T19:31:23.230Z,102540.25
2019-05-15T19:33:47.447Z,102541.25
2019-05-15T19:36:20.422Z,102540.94
2019-05-15T19:38:53.920Z,102548.47
2019-05-15T19:41:28.881Z,102550.41
2019-05-15T19:44:01.788Z,102552.72
2019-05-15T19:46:34.982Z,102551.72
2019-05-15T19:49:08.766Z,102551.72
2019-05-15T19:51:41.800Z,102556.82
2019-05-15T19:54:14.819Z,102553.73
2019-05-15T19:56:48.200Z,102555.44
2019-05-15T19:59:22.681Z,102555.44
2019-05-15T20:01:57.770Z,102555.81
2019-05-15T20:04:31.135Z,102555.81
2019-05-15T20:07:04.132Z,102559.42
2019-05-15T20:09:38.369Z,102558.92
2019-05-15T20:12:12.141Z,102558.92
2019-05-15T20:14:45.383Z,102556.94
2019-05-15T20:17:18.396Z,102554.22
2019-05-15T20:19:51.361Z,102555.92
2019-05-15T20:22:24.488Z,102558.56
2019-05-15T20:24:58.826Z,102553.78
2019-05-15T20:27:32.030Z,102554.38
2019-05-15T20:30:05.828Z,102554.38
2019-05-15T20:32:39.005Z,102551.97
2019-05-15T20:35:12.422Z,102551.77
2019-05-15T20:37:45.721Z,102545.17
2019-05-15T20:40:19.621Z,102545.17
2019-05-15T20:42:52.632Z,102550.30
2019-05-15T20:45:25.675Z,102550.30
2019-05-15T20:47:58.666Z,102545.44
2019-05-15T20:50:31.603Z,102545.44
2019-05-15T20:53:04.542Z,102554.87
2019-05-15T20:55:38.063Z,102550.68
2019-05-15T20:58:11.474Z,102555.56
2019-05-15T21:00:44.574Z,102551.55
2019-05-15T21:03:17.904Z,102539.69
2019-05-15T21:05:51.420Z,102539.69
2019-05-15T21:08:24.322Z,102546.72
2019-05-15T21:10:58.774Z,102546.72
2019-05-15T21:13:31.898Z,102542.84
2019-05-15T21:16:04.884Z,102541.16
2019-05-15T21:18:38.237Z,102539.77
2019-05-15T21:21:12.060Z,102539.77
2019-05-15T21:23:44.982Z,102539.16
2019-05-15T21:26:18.752Z,102539.95
2019-05-15T21:28:51.900Z,102539.16
2019-05-15T21:31:25.056Z,102539.16
2019-05-15T21:33:58.880Z,102526.25
2019-05-15T21:36:31.896Z,102521.44
2019-05-15T21:39:05.888Z,102521.44
2019-05-15T21:41:39.065Z,102521.27
2019-05-15T21:44:12.050Z,102522.23
2019-05-15T21:46:45.207Z,102522.23
2019-05-15T21:49:19.190Z,102525.20
2019-05-15T21:51:52.182Z,102521.94
2019-05-15T21:54:25.300Z,102521.94
2019-05-15T21:57:12.856Z,102523.67
2019-05-15T21:59:32.947Z,102514.63
2019-05-15T22:02:05.844Z,102514.63
2019-05-15T22:04:51.917Z,102505.75
2019-05-15T22:07:13.600Z,102504.40
2019-05-15T22:09:48.581Z,102504.40
2019-05-15T22:12:21.572Z,102506.27
2019-05-15T22:14:54.538Z,102495.56
2019-05-15T22:17:29.348Z,102492.40
2019-05-15T22:20:02.377Z,102492.40
2019-05-15T22:22:35.344Z,102496.17
2019-05-15T22:25:11.216Z,102489.67
2019-05-15T22:27:44.307Z,102478.20
2019-05-15T22:30:17.855Z,102479.67
2019-05-15T22:32:50.851Z,102479.67
2019-05-15T22:35:24.129Z,102478.73
2019-05-15T22:37:58.405Z,102478.73
2019-05-15T22:40:31.654Z,102472.41
2019-05-15T22:43:04.739Z,102467.89
2019-05-15T22:45:37.827Z,102467.89
2019-05-15T22:48:10.927Z,102471.42
2019-05-15T22:50:43.898Z,102465.45
2019-05-15T22:53:17.801Z,102465.45
2019-05-15T22:55:50.876Z,102467.88
2019-05-15T22:58:23.788Z,102467.88
2019-05-15T23:00:59.492Z,102465.56
2019-05-15T23:03:31.551Z,102463.73
2019-05-15T23:06:04.644Z,102459.88
2019-05-15T23:08:38.518Z,102455.06
2019-05-15T23:11:11.597Z,102454.88
2019-05-15T23:13:44.665Z,102451.41
2019-05-15T23:16:18.352Z,102456.64
2019-05-15T23:18:51.438Z,102459.05
2019-05-15T23:21:24.856Z,102451.63
2019-05-15T23:23:57.966Z,102450.58
2019-05-15T23:26:30.920Z,102450.95
2019-05-15T23:29:03.891Z,102448.87
2019-05-15T23:31:36.898Z,102452.14
2019-05-15T23:34:10.500Z,102447.03
2019-05-15T23:36:43.437Z,102447.90
2019-05-15T23:39:18.267Z,102449.63
2019-05-15T23:41:51.064Z,102448.48
2019-05-15T23:44:23.959Z,102448.48
2019-05-15T23:46:56.964Z,102441.83
2019-05-15T23:49:29.867Z,102443.84
2019-05-15T23:52:02.892Z,102442.23
2019-05-15T23:54:38.397Z,102440.01
2019-05-15T23:57:10.842Z,102429.41
2019-05-15T23:59:43.751Z,102429.41
